sensor_id;sensor_type;location;lat;lon;timestamp;pressure;altitude;pressure_sealevel;temperature;humidity
64076;BME280;50327;51.328;12.324;2023-06-14T00:02:11;52566.13;;;-144.47;56.79
64076;BME280;50327;51.328;12.324;2023-06-14T00:04:36;52562.16;;;-144.47;57.01
64076;BME280;50327;51.328;12.324;2023-06-14T00:07:04;52552.22;;;-144.47;57.26
64076;BME280;50327;51.328;12.324;2023-06-14T00:09:29;52566.13;;;-144.47;57.62
64076;BME280;50327;51.328;12.324;2023-06-14T00:11:55;52558.19;;;-144.47;57.76
64076;BME280;50327;51.328;12.324;2023-06-14T00:14:20;52562.16;;;-144.47;58.12
64076;BME280;50327;51.328;12.324;2023-06-14T00:16:46;52550.25;;;-144.47;58.48
64076;BME280;50327;51.328;12.324;2023-06-14T00:19:11;52558.19;;;-144.47;58.63
64076;BME280;50327;51.328;12.324;2023-06-14T00:21:37;52554.22;;;-144.47;58.88
64076;BME280;50327;51.328;12.324;2023-06-14T00:24:03;52556.19;;;-144.47;59.16
64076;BME280;50327;51.328;12.324;2023-06-14T00:26:29;52548.25;;;-144.47;59.30
64076;BME280;50327;51.328;12.324;2023-06-14T00:28:55;52570.09;;;-144.47;59.75
64076;BME280;50327;51.328;12.324;2023-06-14T00:31:22;52546.25;;;-144.47;60.14
64076;BME280;50327;51.328;12.324;2023-06-14T00:33:47;52578.03;;;-144.47;60.27
64076;BME280;50327;51.328;12.324;2023-06-14T00:36:13;52572.09;;;-144.47;60.61
64076;BME280;50327;51.328;12.324;2023-06-14T00:38:38;52544.28;;;-144.47;60.89
64076;BME280;50327;51.328;12.324;2023-06-14T00:41:03;52589.97;;;-144.47;61.09
64076;BME280;50327;51.328;12.324;2023-06-14T00:43:29;52582.00;;;-144.47;61.40
64076;BME280;50327;51.328;12.324;2023-06-14T00:45:55;52578.03;;;-144.47;61.47
64076;BME280;50327;51.328;12.324;2023-06-14T00:48:20;52562.16;;;-144.47;61.84
64076;BME280;50327;51.328;12.324;2023-06-14T00:50:46;52570.09;;;-144.47;62.24
64076;BME280;50327;51.328;12.324;2023-06-14T00:53:14;52582.00;;;-144.47;62.26
64076;BME280;50327;51.328;12.324;2023-06-14T00:55:42;52589.97;;;-144.47;62.67
64076;BME280;50327;51.328;12.324;2023-06-14T00:58:09;52576.06;;;-144.47;62.68
64076;BME280;50327;51.328;12.324;2023-06-14T01:00:34;52560.16;;;-144.47;63.05
64076;BME280;50327;51.328;12.324;2023-06-14T01:03:01;52584.00;;;-144.47;63.22
64076;BME280;50327;51.328;12.324;2023-06-14T01:05:27;52568.13;;;-144.47;63.38
64076;BME280;50327;51.328;12.324;2023-06-14T01:15:33;52550.25;;;-144.47;63.95
64076;BME280;50327;51.328;12.324;2023-06-14T01:17:59;52564.13;;;-144.47;64.25
64076;BME280;50327;51.328;12.324;2023-06-14T01:20:30;52585.97;;;-144.47;64.39
64076;BME280;50327;51.328;12.324;2023-06-14T01:22:56;52599.88;;;-144.47;64.68
64076;BME280;50327;51.328;12.324;2023-06-14T01:25:22;52564.13;;;-144.47;64.88
64076;BME280;50327;51.328;12.324;2023-06-14T01:27:53;52589.97;;;-144.47;64.90
64076;BME280;50327;51.328;12.324;2023-06-14T01:30:21;52601.88;;;-144.47;65.14
64076;BME280;50327;51.328;12.324;2023-06-14T01:32:48;52550.25;;;-144.47;65.24
64076;BME280;50327;51.328;12.324;2023-06-14T01:35:16;52550.25;;;-144.47;65.66
64076;BME280;50327;51.328;12.324;2023-06-14T01:37:43;52597.91;;;-144.47;65.98
64076;BME280;50327;51.328;12.324;2023-06-14T01:40:10;52578.03;;;-144.47;65.92
64076;BME280;50327;51.328;12.324;2023-06-14T01:42:37;52566.13;;;-144.47;66.28
64076;BME280;50327;51.328;12.324;2023-06-14T01:45:04;52568.13;;;-144.47;66.54
64076;BME280;50327;51.328;12.324;2023-06-14T01:47:31;52572.09;;;-144.47;66.75
64076;BME280;50327;51.328;12.324;2023-06-14T01:49:57;52574.06;;;-144.47;67.11
64076;BME280;50327;51.328;12.324;2023-06-14T01:52:22;52582.00;;;-144.47;67.37
64076;BME280;50327;51.328;12.324;2023-06-14T01:54:50;52591.94;;;-144.47;67.56
64076;BME280;50327;51.328;12.324;2023-06-14T01:57:15;52578.03;;;-144.47;67.60
64076;BME280;50327;51.328;12.324;2023-06-14T01:59:41;52550.25;;;-144.47;67.95
64076;BME280;50327;51.328;12.324;2023-06-14T02:02:06;52584.00;;;-144.47;68.21
64076;BME280;50327;51.328;12.324;2023-06-14T02:04:32;52601.88;;;-144.47;68.58
64076;BME280;50327;51.328;12.324;2023-06-14T02:06:57;52589.97;;;-144.47;68.90
64076;BME280;50327;51.328;12.324;2023-06-14T02:09:22;52578.03;;;-144.47;68.95
64076;BME280;50327;51.328;12.324;2023-06-14T02:11:49;52582.00;;;-144.47;69.12
64076;BME280;50327;51.328;12.324;2023-06-14T02:14:14;52584.00;;;-144.47;69.02
64076;BME280;50327;51.328;12.324;2023-06-14T02:16:39;52578.03;;;-144.47;69.39
64076;BME280;50327;51.328;12.324;2023-06-14T02:19:05;52601.88;;;-144.47;69.41
64076;BME280;50327;51.328;12.324;2023-06-14T02:21:31;52587.97;;;-144.47;69.66
64076;BME280;50327;51.328;12.324;2023-06-14T02:23:56;52584.00;;;-144.47;70.15
64076;BME280;50327;51.328;12.324;2023-06-14T02:26:23;52582.00;;;-144.47;70.24
64076;BME280;50327;51.328;12.324;2023-06-14T02:28:48;52585.97;;;-144.47;70.28
64076;BME280;50327;51.328;12.324;2023-06-14T02:31:14;52595.91;;;-144.47;70.66
64076;BME280;50327;51.328;12.324;2023-06-14T02:33:41;52584.00;;;-144.47;70.68
64076;BME280;50327;51.328;12.324;2023-06-14T02:36:06;52605.84;;;-144.47;70.95
64076;BME280;50327;51.328;12.324;2023-06-14T02:38:32;52584.00;;;-144.47;71.43
64076;BME280;50327;51.328;12.324;2023-06-14T02:40:58;52605.84;;;-144.47;71.73
64076;BME280;50327;51.328;12.324;2023-06-14T02:43:25;52597.91;;;-144.47;71.97
64076;BME280;50327;51.328;12.324;2023-06-14T02:45:50;52593.94;;;-144.47;71.68
64076;BME280;50327;51.328;12.324;2023-06-14T02:48:16;52582.00;;;-144.47;71.97
64076;BME280;50327;51.328;12.324;2023-06-14T02:50:41;52595.91;;;-144.47;72.27
64076;BME280;50327;51.328;12.324;2023-06-14T02:53:07;52605.84;;;-144.47;72.60
64076;BME280;50327;51.328;12.324;2023-06-14T02:55:33;52585.97;;;-144.47;72.62
64076;BME280;50327;51.328;12.324;2023-06-14T02:57:58;52593.94;;;-144.47;72.91
64076;BME280;50327;51.328;12.324;2023-06-14T03:00:24;52585.97;;;-144.47;73.05
64076;BME280;50327;51.328;12.324;2023-06-14T03:02:49;52591.94;;;-144.47;73.24
64076;BME280;50327;51.328;12.324;2023-06-14T03:05:16;52585.97;;;-144.47;73.19
64076;BME280;50327;51.328;12.324;2023-06-14T03:07:46;52591.94;;;-144.47;72.98
64076;BME280;50327;51.328;12.324;2023-06-14T03:10:12;52568.13;;;-144.47;73.40
64076;BME280;50327;51.328;12.324;2023-06-14T03:12:38;52603.84;;;-144.47;73.39
64076;BME280;50327;51.328;12.324;2023-06-14T03:15:04;52601.88;;;-144.47;73.46
64076;BME280;50327;51.328;12.324;2023-06-14T03:17:30;52580.03;;;-144.47;73.82
64076;BME280;50327;51.328;12.324;2023-06-14T03:19:59;52584.00;;;-144.47;74.01
64076;BME280;50327;51.328;12.324;2023-06-14T03:22:25;52599.88;;;-144.47;74.19
64076;BME280;50327;51.328;12.324;2023-06-14T03:24:51;52591.94;;;-144.47;74.51
64076;BME280;50327;51.328;12.324;2023-06-14T03:27:17;52570.09;;;-144.47;74.33
64076;BME280;50327;51.328;12.324;2023-06-14T03:29:43;52595.91;;;-144.47;74.49
64076;BME280;50327;51.328;12.324;2023-06-14T03:32:09;52601.88;;;-144.47;74.44
64076;BME280;50327;51.328;12.324;2023-06-14T03:34:34;52591.94;;;-144.47;74.74
64076;BME280;50327;51.328;12.324;2023-06-14T03:36:59;52597.91;;;-144.47;74.79
64076;BME280;50327;51.328;12.324;2023-06-14T03:39:25;52593.94;;;-144.47;75.10
64076;BME280;50327;51.328;12.324;2023-06-14T03:41:50;52589.97;;;-144.47;74.92
64076;BME280;50327;51.328;12.324;2023-06-14T03:44:17;52611.81;;;-144.47;75.16
64076;BME280;50327;51.328;12.324;2023-06-14T03:46:46;52576.06;;;-144.47;75.02
64076;BME280;50327;51.328;12.324;2023-06-14T03:49:12;52580.03;;;-144.47;75.46
64076;BME280;50327;51.328;12.324;2023-06-14T03:51:37;52580.03;;;-144.47;75.76
64076;BME280;50327;51.328;12.324;2023-06-14T03:54:03;52587.97;;;-144.47;75.65
64076;BME280;50327;51.328;12.324;2023-06-14T03:56:28;52595.91;;;-144.47;75.56
64076;BME280;50327;51.328;12.324;2023-06-14T03:58:54;52580.03;;;-144.47;75.40
64076;BME280;50327;51.328;12.324;2023-06-14T04:01:19;52597.91;;;-144.47;75.58
64076;BME280;50327;51.328;12.324;2023-06-14T04:03:45;52599.88;;;-144.47;75.52
64076;BME280;50327;51.328;12.324;2023-06-14T04:06:10;52599.88;;;-144.47;75.36
64076;BME280;50327;51.328;12.324;2023-06-14T04:08:36;52613.78;;;-144.47;75.39
64076;BME280;50327;51.328;12.324;2023-06-14T04:11:04;52609.81;;;-144.47;75.54
64076;BME280;50327;51.328;12.324;2023-06-14T04:13:30;52611.81;;;-144.47;75.45
64076;BME280;50327;51.328;12.324;2023-06-14T04:15:56;52589.97;;;-144.47;75.63
64076;BME280;50327;51.328;12.324;2023-06-14T04:18:22;52589.97;;;-144.47;75.90
64076;BME280;50327;51.328;12.324;2023-06-14T04:20:48;52605.84;;;-144.47;76.03
64076;BME280;50327;51.328;12.324;2023-06-14T04:23:16;52593.94;;;-144.47;75.30
64076;BME280;50327;51.328;12.324;2023-06-14T04:25:43;52611.81;;;-144.47;75.55
64076;BME280;50327;51.328;12.324;2023-06-14T04:28:11;52609.81;;;-144.47;75.15
64076;BME280;50327;51.328;12.324;2023-06-14T04:30:37;52603.84;;;-144.47;74.95
64076;BME280;50327;51.328;12.324;2023-06-14T04:33:07;52599.88;;;-144.47;74.98
64076;BME280;50327;51.328;12.324;2023-06-14T04:35:33;52607.84;;;-144.47;75.49
64076;BME280;50327;51.328;12.324;2023-06-14T04:38:01;52605.84;;;-144.47;75.04
64076;BME280;50327;51.328;12.324;2023-06-14T04:40:27;52593.94;;;-144.47;74.91
64076;BME280;50327;51.328;12.324;2023-06-14T04:42:52;52597.91;;;-144.47;74.83
64076;BME280;50327;51.328;12.324;2023-06-14T04:45:17;52576.06;;;-144.47;74.65
64076;BME280;50327;51.328;12.324;2023-06-14T04:47:43;52595.91;;;-144.47;74.37
64076;BME280;50327;51.328;12.324;2023-06-14T04:50:11;52597.91;;;-144.47;74.26
64076;BME280;50327;51.328;12.324;2023-06-14T04:52:38;52595.91;;;-144.47;74.31
64076;BME280;50327;51.328;12.324;2023-06-14T04:55:03;52572.09;;;-144.47;73.78
64076;BME280;50327;51.328;12.324;2023-06-14T04:57:29;52568.13;;;-144.47;73.54
64076;BME280;50327;51.328;12.324;2023-06-14T04:59:54;52591.94;;;-144.47;73.45
64076;BME280;50327;51.328;12.324;2023-06-14T05:02:23;52582.00;;;-144.47;73.77
64076;BME280;50327;51.328;12.324;2023-06-14T05:04:50;52582.00;;;-144.47;72.76
64076;BME280;50327;51.328;12.324;2023-06-14T05:07:15;52574.06;;;-144.47;72.42
64076;BME280;50327;51.328;12.324;2023-06-14T05:09:41;52580.03;;;-144.47;72.22
64076;BME280;50327;51.328;12.324;2023-06-14T05:12:07;52582.00;;;-144.47;71.74
64076;BME280;50327;51.328;12.324;2023-06-14T05:14:36;52574.06;;;-144.47;71.04
64076;BME280;50327;51.328;12.324;2023-06-14T05:17:01;52552.22;;;-144.47;70.80
64076;BME280;50327;51.328;12.324;2023-06-14T05:19:28;52578.03;;;-144.47;70.21
64076;BME280;50327;51.328;12.324;2023-06-14T05:21:53;52593.94;;;-144.47;70.02
64076;BME280;50327;51.328;12.324;2023-06-14T05:24:22;52580.03;;;-144.47;69.28
64076;BME280;50327;51.328;12.324;2023-06-14T05:26:48;52578.03;;;-144.47;69.22
64076;BME280;50327;51.328;12.324;2023-06-14T05:29:14;52574.06;;;-144.47;68.73
64076;BME280;50327;51.328;12.324;2023-06-14T05:31:39;52566.13;;;-144.47;68.38
64076;BME280;50327;51.328;12.324;2023-06-14T05:34:04;52589.97;;;-144.47;67.83
64076;BME280;50327;51.328;12.324;2023-06-14T05:36:30;52587.97;;;-144.47;67.73
64076;BME280;50327;51.328;12.324;2023-06-14T05:38:56;52599.88;;;-144.47;67.69
64076;BME280;50327;51.328;12.324;2023-06-14T05:41:25;52562.16;;;-144.47;67.19
64076;BME280;50327;51.328;12.324;2023-06-14T05:43:52;52582.00;;;-144.47;66.93
64076;BME280;50327;51.328;12.324;2023-06-14T05:46:17;52578.03;;;-144.47;66.61
64076;BME280;50327;51.328;12.324;2023-06-14T05:48:47;52550.25;;;-144.47;67.02
64076;BME280;50327;51.328;12.324;2023-06-14T05:51:13;52564.13;;;-144.47;65.92
64076;BME280;50327;51.328;12.324;2023-06-14T05:53:38;52560.16;;;-144.47;66.43
64076;BME280;50327;51.328;12.324;2023-06-14T05:56:03;52578.03;;;-144.47;65.99
64076;BME280;50327;51.328;12.324;2023-06-14T05:58:29;52566.13;;;-144.47;65.84
64076;BME280;50327;51.328;12.324;2023-06-14T06:00:54;52585.97;;;-144.47;65.42
64076;BME280;50327;51.328;12.324;2023-06-14T06:03:19;52562.16;;;-144.47;65.44
64076;BME280;50327;51.328;12.324;2023-06-14T06:05:46;52572.09;;;-144.47;65.73
64076;BME280;50327;51.328;12.324;2023-06-14T06:08:11;52593.94;;;-144.47;66.10
64076;BME280;50327;51.328;12.324;2023-06-14T06:10:37;52584.00;;;-144.47;65.32
64076;BME280;50327;51.328;12.324;2023-06-14T06:13:02;52564.13;;;-144.47;65.59
64076;BME280;50327;51.328;12.324;2023-06-14T06:15:27;52552.22;;;-144.47;65.59
64076;BME280;50327;51.328;12.324;2023-06-14T06:17:53;52585.97;;;-144.47;65.62
64076;BME280;50327;51.328;12.324;2023-06-14T06:20:18;52584.00;;;-144.47;65.97
64076;BME280;50327;51.328;12.324;2023-06-14T06:22:43;52550.25;;;-144.47;66.09
64076;BME280;50327;51.328;12.324;2023-06-14T06:25:09;52582.00;;;-144.47;64.78
64076;BME280;50327;51.328;12.324;2023-06-14T06:27:34;52552.22;;;-144.47;64.17
64076;BME280;50327;51.328;12.324;2023-06-14T06:30:03;52572.09;;;-144.47;64.03
64076;BME280;50327;51.328;12.324;2023-06-14T06:32:28;52550.25;;;-144.47;63.87
64076;BME280;50327;51.328;12.324;2023-06-14T06:34:53;52585.97;;;-144.47;63.02
64076;BME280;50327;51.328;12.324;2023-06-14T06:37:19;52552.22;;;-144.47;62.50
64076;BME280;50327;51.328;12.324;2023-06-14T06:39:44;52554.22;;;-144.47;62.22
64076;BME280;50327;51.328;12.324;2023-06-14T06:42:10;52562.16;;;-144.47;62.76
64076;BME280;50327;51.328;12.324;2023-06-14T06:44:36;52574.06;;;-144.47;61.08
64076;BME280;50327;51.328;12.324;2023-06-14T06:47:01;52554.22;;;-144.47;61.05
64076;BME280;50327;51.328;12.324;2023-06-14T06:49:27;52554.22;;;-144.47;61.09
64076;BME280;50327;51.328;12.324;2023-06-14T06:52:02;52593.94;;;-144.47;59.97
64076;BME280;50327;51.328;12.324;2023-06-14T06:54:28;52542.28;;;-144.47;58.83
64076;BME280;50327;51.328;12.324;2023-06-14T06:56:53;52542.28;;;-144.47;59.13
64076;BME280;50327;51.328;12.324;2023-06-14T06:59:19;52572.09;;;-144.47;59.21
64076;BME280;50327;51.328;12.324;2023-06-14T07:01:44;52554.22;;;-144.47;58.80
64076;BME280;50327;51.328;12.324;2023-06-14T07:04:09;52566.13;;;-144.47;59.40
64076;BME280;50327;51.328;12.324;2023-06-14T07:06:35;52556.19;;;-144.47;58.45
64076;BME280;50327;51.328;12.324;2023-06-14T07:09:01;52536.34;;;-144.47;57.66
64076;BME280;50327;51.328;12.324;2023-06-14T07:11:27;52560.16;;;-144.47;56.78
64076;BME280;50327;51.328;12.324;2023-06-14T07:13:52;52548.25;;;-144.47;57.54
64076;BME280;50327;51.328;12.324;2023-06-14T07:16:18;52572.09;;;-144.47;57.76
64076;BME280;50327;51.328;12.324;2023-06-14T07:18:43;52532.38;;;-144.47;56.64
64076;BME280;50327;51.328;12.324;2023-06-14T07:21:09;52548.25;;;-144.47;56.97
64076;BME280;50327;51.328;12.324;2023-06-14T07:23:34;52548.25;;;-144.47;56.16
64076;BME280;50327;51.328;12.324;2023-06-14T07:26:00;52558.19;;;-144.47;55.71
64076;BME280;50327;51.328;12.324;2023-06-14T07:28:26;52562.16;;;-144.47;55.59
64076;BME280;50327;51.328;12.324;2023-06-14T07:30:51;52542.28;;;-144.47;54.85
64076;BME280;50327;51.328;12.324;2023-06-14T07:33:16;52560.16;;;-144.47;54.84
64076;BME280;50327;51.328;12.324;2023-06-14T07:35:42;52544.28;;;-144.47;54.70
64076;BME280;50327;51.328;12.324;2023-06-14T07:38:07;52526.41;;;-144.47;53.47
64076;BME280;50327;51.328;12.324;2023-06-14T07:40:32;52560.16;;;-144.47;53.48
64076;BME280;50327;51.328;12.324;2023-06-14T07:42:58;52534.34;;;-144.47;53.72
64076;BME280;50327;51.328;12.324;2023-06-14T07:45:23;52550.25;;;-144.47;53.36
64076;BME280;50327;51.328;12.324;2023-06-14T07:47:49;52546.25;;;-144.47;53.30
64076;BME280;50327;51.328;12.324;2023-06-14T07:50:15;52548.25;;;-144.47;53.51
64076;BME280;50327;51.328;12.324;2023-06-14T07:52:40;52548.25;;;-144.47;50.77
64076;BME280;50327;51.328;12.324;2023-06-14T07:55:06;52540.31;;;-144.47;51.17
64076;BME280;50327;51.328;12.324;2023-06-14T07:57:31;52558.19;;;-144.47;50.44
64076;BME280;50327;51.328;12.324;2023-06-14T07:59:57;52554.22;;;-144.47;50.38
64076;BME280;50327;51.328;12.324;2023-06-14T08:02:23;52530.38;;;-144.47;50.38
64076;BME280;50327;51.328;12.324;2023-06-14T08:04:49;52548.25;;;-144.47;49.95
64076;BME280;50327;51.328;12.324;2023-06-14T08:07:14;52540.31;;;-144.47;49.47
64076;BME280;50327;51.328;12.324;2023-06-14T08:09:40;52536.34;;;-144.47;49.55
64076;BME280;50327;51.328;12.324;2023-06-14T08:12:06;52564.13;;;-144.47;49.43
64076;BME280;50327;51.328;12.324;2023-06-14T08:14:39;52564.13;;;-144.47;49.66
64076;BME280;50327;51.328;12.324;2023-06-14T08:17:05;52540.31;;;-144.47;49.62
64076;BME280;50327;51.328;12.324;2023-06-14T08:19:30;52550.25;;;-144.47;48.42
64076;BME280;50327;51.328;12.324;2023-06-14T08:21:56;52562.16;;;-144.47;48.17
64076;BME280;50327;51.328;12.324;2023-06-14T08:24:22;52554.22;;;-144.47;47.85
64076;BME280;50327;51.328;12.324;2023-06-14T08:26:52;52556.19;;;-144.47;46.85
64076;BME280;50327;51.328;12.324;2023-06-14T08:29:18;52550.25;;;-144.47;46.35
64076;BME280;50327;51.328;12.324;2023-06-14T08:31:43;52554.22;;;-144.47;46.11
64076;BME280;50327;51.328;12.324;2023-06-14T08:34:08;52532.38;;;-144.47;46.02
64076;BME280;50327;51.328;12.324;2023-06-14T08:36:35;52540.31;;;-144.47;46.39
64076;BME280;50327;51.328;12.324;2023-06-14T08:39:00;52552.22;;;-144.47;46.57
64076;BME280;50327;51.328;12.324;2023-06-14T08:41:28;52542.28;;;-144.47;47.11
64076;BME280;50327;51.328;12.324;2023-06-14T08:43:56;52520.44;;;-144.47;46.11
64076;BME280;50327;51.328;12.324;2023-06-14T08:46:24;52540.31;;;-144.47;45.78
64076;BME280;50327;51.328;12.324;2023-06-14T08:48:55;52546.25;;;-144.47;45.69
64076;BME280;50327;51.328;12.324;2023-06-14T08:51:22;52566.13;;;-144.47;45.33
64076;BME280;50327;51.328;12.324;2023-06-14T08:53:54;52520.44;;;-144.47;45.64
64076;BME280;50327;51.328;12.324;2023-06-14T08:56:25;52536.34;;;-144.47;44.70
64076;BME280;50327;51.328;12.324;2023-06-14T08:58:51;52540.31;;;-144.47;44.64
64076;BME280;50327;51.328;12.324;2023-06-14T09:01:18;52558.19;;;-144.47;43.00
64076;BME280;50327;51.328;12.324;2023-06-14T09:03:44;52556.19;;;-144.47;42.61
64076;BME280;50327;51.328;12.324;2023-06-14T09:06:10;52522.44;;;-144.47;42.87
64076;BME280;50327;51.328;12.324;2023-06-14T09:08:47;52550.25;;;-144.47;43.10
64076;BME280;50327;51.328;12.324;2023-06-14T09:11:15;52585.97;;;-144.47;43.06
64076;BME280;50327;51.328;12.324;2023-06-14T09:13:41;52550.25;;;-144.47;41.75
64076;BME280;50327;51.328;12.324;2023-06-14T09:16:07;52544.28;;;-144.47;41.18
64076;BME280;50327;51.328;12.324;2023-06-14T09:18:41;52566.13;;;-144.47;41.83
64076;BME280;50327;51.328;12.324;2023-06-14T09:21:09;52530.38;;;-144.47;42.15
64076;BME280;50327;51.328;12.324;2023-06-14T09:23:42;52576.06;;;-144.47;41.46
64076;BME280;50327;51.328;12.324;2023-06-14T09:26:17;52540.31;;;-144.47;42.56
64076;BME280;50327;51.328;12.324;2023-06-14T09:28:47;52564.13;;;-144.47;41.75
64076;BME280;50327;51.328;12.324;2023-06-14T09:31:17;52556.19;;;-144.47;41.65
64076;BME280;50327;51.328;12.324;2023-06-14T09:33:48;52548.25;;;-144.47;41.06
64076;BME280;50327;51.328;12.324;2023-06-14T09:36:21;52589.97;;;-144.47;40.41
64076;BME280;50327;51.328;12.324;2023-06-14T09:38:57;52530.38;;;-144.47;41.12
64076;BME280;50327;51.328;12.324;2023-06-14T09:41:33;52536.34;;;-144.47;40.65
64076;BME280;50327;51.328;12.324;2023-06-14T09:44:00;52546.25;;;-144.47;40.61
64076;BME280;50327;51.328;12.324;2023-06-14T09:46:29;52554.22;;;-144.47;39.97
64076;BME280;50327;51.328;12.324;2023-06-14T09:48:56;52554.22;;;-144.47;39.84
64076;BME280;50327;51.328;12.324;2023-06-14T09:51:25;52566.13;;;-144.47;40.23
64076;BME280;50327;51.328;12.324;2023-06-14T09:53:52;52566.13;;;-144.47;40.31
64076;BME280;50327;51.328;12.324;2023-06-14T09:56:40;52564.13;;;-144.47;40.32
64076;BME280;50327;51.328;12.324;2023-06-14T09:59:09;52530.38;;;-144.47;40.64
64076;BME280;50327;51.328;12.324;2023-06-14T10:01:36;52538.31;;;-144.47;40.67
64076;BME280;50327;51.328;12.324;2023-06-14T10:04:07;52560.16;;;-144.47;40.82
64076;BME280;50327;51.328;12.324;2023-06-14T10:06:36;52544.28;;;-144.47;40.48
64076;BME280;50327;51.328;12.324;2023-06-14T10:09:04;52570.09;;;-144.47;39.59
64076;BME280;50327;51.328;12.324;2023-06-14T10:11:30;52566.13;;;-144.47;38.54
64076;BME280;50327;51.328;12.324;2023-06-14T10:13:57;52546.25;;;-144.47;38.61
64076;BME280;50327;51.328;12.324;2023-06-14T10:16:24;52564.13;;;-144.47;38.99
64076;BME280;50327;51.328;12.324;2023-06-14T10:21:51;52576.06;;;-144.47;36.36
64076;BME280;50327;51.328;12.324;2023-06-14T10:24:28;52568.13;;;-144.47;36.34
64076;BME280;50327;51.328;12.324;2023-06-14T10:26:57;52558.19;;;-144.47;36.95
64076;BME280;50327;51.328;12.324;2023-06-14T10:29:23;52576.06;;;-144.47;36.46
64076;BME280;50327;51.328;12.324;2023-06-14T10:31:50;52568.13;;;-144.47;36.48
64076;BME280;50327;51.328;12.324;2023-06-14T10:34:27;52560.16;;;-144.47;36.74
64076;BME280;50327;51.328;12.324;2023-06-14T10:37:07;52556.19;;;-144.47;37.34
64076;BME280;50327;51.328;12.324;2023-06-14T10:39:41;52568.13;;;-144.47;37.29
64076;BME280;50327;51.328;12.324;2023-06-14T10:42:07;52568.13;;;-144.47;37.92
64076;BME280;50327;51.328;12.324;2023-06-14T10:44:53;52556.19;;;-144.47;37.77
64076;BME280;50327;51.328;12.324;2023-06-14T10:50:10;52536.34;;;-144.47;38.88
64076;BME280;50327;51.328;12.324;2023-06-14T10:52:41;52564.13;;;-144.47;38.83
64076;BME280;50327;51.328;12.324;2023-06-14T10:57:40;52576.06;;;-144.47;38.88
64076;BME280;50327;51.328;12.324;2023-06-14T11:00:07;52554.22;;;-144.47;38.97
64076;BME280;50327;51.328;12.324;2023-06-14T11:05:43;52554.22;;;-144.47;38.39
64076;BME280;50327;51.328;12.324;2023-06-14T11:11:09;52544.28;;;-144.47;38.41
64076;BME280;50327;51.328;12.324;2023-06-14T11:13:38;52595.91;;;-144.47;38.27
64076;BME280;50327;51.328;12.324;2023-06-14T11:16:10;52554.22;;;-144.47;38.58
64076;BME280;50327;51.328;12.324;2023-06-14T11:18:36;52589.97;;;-144.47;38.62
64076;BME280;50327;51.328;12.324;2023-06-14T11:21:02;52558.19;;;-144.47;38.84
64076;BME280;50327;51.328;12.324;2023-06-14T11:23:27;52550.25;;;-144.47;38.57
64076;BME280;50327;51.328;12.324;2023-06-14T11:25:53;52544.28;;;-144.47;38.13
64076;BME280;50327;51.328;12.324;2023-06-14T11:28:19;52568.13;;;-144.47;37.59
64076;BME280;50327;51.328;12.324;2023-06-14T11:30:47;52576.06;;;-144.47;37.33
64076;BME280;50327;51.328;12.324;2023-06-14T11:33:17;52576.06;;;-144.47;36.89
64076;BME280;50327;51.328;12.324;2023-06-14T11:35:44;52568.13;;;-144.47;37.24
64076;BME280;50327;51.328;12.324;2023-06-14T11:38:10;52574.06;;;-144.47;37.10
64076;BME280;50327;51.328;12.324;2023-06-14T11:40:37;52593.94;;;-144.47;36.81
64076;BME280;50327;51.328;12.324;2023-06-14T11:43:03;52597.91;;;-144.47;36.75
64076;BME280;50327;51.328;12.324;2023-06-14T11:45:30;52589.97;;;-144.47;36.91
64076;BME280;50327;51.328;12.324;2023-06-14T11:47:56;52591.94;;;-144.47;36.75
64076;BME280;50327;51.328;12.324;2023-06-14T11:50:22;52611.81;;;-144.47;37.04
64076;BME280;50327;51.328;12.324;2023-06-14T11:52:58;52585.97;;;-144.47;36.75
64076;BME280;50327;51.328;12.324;2023-06-14T11:55:25;52574.06;;;-144.47;36.53
64076;BME280;50327;51.328;12.324;2023-06-14T11:57:51;52584.00;;;-144.47;37.63
64076;BME280;50327;51.328;12.324;2023-06-14T12:00:19;52593.94;;;-144.47;37.92
64076;BME280;50327;51.328;12.324;2023-06-14T12:02:56;52587.97;;;-144.47;37.61
64076;BME280;50327;51.328;12.324;2023-06-14T12:05:22;52550.25;;;-144.47;37.52
64076;BME280;50327;51.328;12.324;2023-06-14T12:07:50;52576.06;;;-144.47;37.08
64076;BME280;50327;51.328;12.324;2023-06-14T12:10:16;52576.06;;;-144.47;36.66
64076;BME280;50327;51.328;12.324;2023-06-14T12:12:42;52601.88;;;-144.47;36.74
64076;BME280;50327;51.328;12.324;2023-06-14T12:15:08;52572.09;;;-144.47;36.29
64076;BME280;50327;51.328;12.324;2023-06-14T12:17:35;52572.09;;;-144.47;35.96
64076;BME280;50327;51.328;12.324;2023-06-14T12:20:12;52584.00;;;-144.47;36.47
64076;BME280;50327;51.328;12.324;2023-06-14T12:22:57;52585.97;;;-144.47;35.97
64076;BME280;50327;51.328;12.324;2023-06-14T12:25:31;52593.94;;;-144.47;36.31
64076;BME280;50327;51.328;12.324;2023-06-14T12:28:14;52587.97;;;-144.47;36.38
64076;BME280;50327;51.328;12.324;2023-06-14T12:30:40;52591.94;;;-144.47;36.69
64076;BME280;50327;51.328;12.324;2023-06-14T12:33:05;52597.91;;;-144.47;37.02
64076;BME280;50327;51.328;12.324;2023-06-14T12:35:32;52582.00;;;-144.47;36.23
64076;BME280;50327;51.328;12.324;2023-06-14T12:37:57;52564.13;;;-144.47;35.44
64076;BME280;50327;51.328;12.324;2023-06-14T12:40:23;52623.72;;;-144.47;35.42
64076;BME280;50327;51.328;12.324;2023-06-14T12:42:49;52605.84;;;-144.47;35.40
64076;BME280;50327;51.328;12.324;2023-06-14T12:45:14;52625.72;;;-144.47;36.28
64076;BME280;50327;51.328;12.324;2023-06-14T12:47:40;52585.97;;;-144.47;36.90
64076;BME280;50327;51.328;12.324;2023-06-14T12:50:06;52595.91;;;-144.47;37.47
64076;BME280;50327;51.328;12.324;2023-06-14T12:52:32;52572.09;;;-144.47;38.13